createdAt,value
2018-11-01T00:02:47.033Z,9.84
2018-11-01T00:07:51.279Z,9.75
2018-11-01T00:12:55.510Z,9.73
2018-11-01T00:17:59.792Z,9.66
2018-11-01T00:23:04.042Z,9.54
2018-11-01T00:28:08.633Z,9.47
2018-11-01T00:33:12.724Z,9.45
2018-11-01T00:38:17.129Z,9.33
2018-11-01T00:43:21.359Z,9.30
2018-11-01T00:48:25.538Z,9.31
2018-11-01T00:53:30.090Z,9.33
2018-11-01T00:58:34.389Z,9.34
2018-11-01T01:03:38.682Z,9.35
2018-11-01T01:08:43.126Z,9.33
2018-11-01T01:13:47.317Z,9.31
2018-11-01T01:18:51.762Z,9.28
2018-11-01T01:23:56.095Z,9.26
2018-11-01T01:29:00.424Z,9.21
2018-11-01T01:34:04.662Z,9.14
2018-11-01T01:39:09.546Z,9.07
2018-11-01T01:44:14.093Z,9.01
2018-11-01T01:49:18.465Z,9.00
2018-11-01T01:54:22.669Z,8.99
2018-11-01T01:59:27.212Z,8.96
2018-11-01T02:04:31.784Z,8.91
2018-11-01T02:09:36.210Z,8.88
2018-11-01T02:14:40.666Z,8.95
2018-11-01T02:19:45.051Z,8.88
2018-11-01T02:24:49.766Z,8.77
2018-11-01T02:29:53.903Z,8.70
2018-11-01T02:34:58.060Z,8.65
2018-11-01T02:40:02.521Z,8.58
2018-11-01T02:45:08.802Z,8.55
2018-11-01T02:50:13.984Z,8.54
2018-11-01T02:55:18.210Z,8.50
2018-11-01T03:00:22.818Z,8.47
2018-11-01T03:05:27.266Z,8.41
2018-11-01T03:10:31.548Z,8.37
2018-11-01T03:15:36.042Z,8.41
2018-11-01T03:20:40.862Z,8.39
2018-11-01T03:25:45.224Z,8.35
2018-11-01T03:30:50.304Z,8.31
2018-11-01T03:35:54.632Z,8.34
2018-11-01T03:40:59.234Z,8.34
2018-11-01T03:46:03.470Z,8.29
2018-11-01T03:51:07.672Z,8.25
2018-11-01T03:56:12.167Z,8.21
2018-11-01T04:01:16.310Z,8.17
2018-11-01T04:06:20.571Z,8.17
2018-11-01T04:11:24.869Z,8.13
2018-11-01T04:16:28.996Z,8.12
2018-11-01T04:21:33.087Z,8.17
2018-11-01T04:26:37.397Z,8.05
2018-11-01T04:31:42.048Z,8.05
2018-11-01T04:36:46.474Z,8.05
2018-11-01T04:41:50.832Z,8.04
2018-11-01T04:46:55.389Z,8.06
2018-11-01T04:51:59.606Z,8.04
2018-11-01T04:57:04.222Z,8.02
2018-11-01T05:02:08.450Z,7.97
2018-11-01T05:07:12.912Z,7.84
2018-11-01T05:12:17.486Z,7.82
2018-11-01T05:17:21.698Z,7.81
2018-11-01T05:22:25.994Z,7.74
2018-11-01T05:27:30.990Z,7.63
2018-11-01T05:32:40.672Z,7.56
2018-11-01T05:37:45.132Z,7.51
2018-11-01T05:42:50.225Z,7.49
2018-11-01T05:47:54.315Z,7.51
2018-11-01T05:52:58.585Z,7.54
2018-11-01T05:58:02.708Z,7.62
2018-11-01T06:03:07.140Z,7.64
2018-11-01T06:08:31.134Z,7.53
2018-11-01T06:13:35.380Z,7.53
2018-11-01T06:18:39.809Z,7.56
2018-11-01T06:23:44.140Z,7.51
2018-11-01T06:28:48.554Z,7.46
2018-11-01T06:33:52.887Z,7.46
2018-11-01T06:38:57.296Z,7.44
2018-11-01T06:44:02.146Z,7.42
2018-11-01T06:49:06.340Z,7.38
2018-11-01T06:54:10.698Z,7.36
2018-11-01T06:59:15.556Z,7.22
2018-11-01T07:04:19.776Z,7.18
2018-11-01T07:09:24.179Z,7.20
2018-11-01T07:14:29.368Z,7.27
2018-11-01T07:25:11.567Z,7.37
2018-11-01T07:30:17.164Z,7.43
2018-11-01T07:35:22.632Z,7.54
2018-11-01T07:40:31.862Z,7.68
2018-11-01T07:45:36.669Z,7.77
2018-11-01T07:50:41.755Z,7.80
2018-11-01T07:55:46.262Z,7.87
2018-11-01T08:00:50.775Z,8.02
2018-11-01T08:05:55.229Z,8.18
2018-11-01T08:10:59.523Z,8.41
2018-11-01T08:16:04.315Z,8.59
2018-11-01T08:21:09.244Z,8.69
2018-11-01T08:26:13.822Z,8.72
2018-11-01T08:31:18.130Z,8.75
2018-11-01T08:36:22.928Z,8.80
2018-11-01T08:41:27.221Z,8.87
2018-11-01T08:46:31.576Z,8.90
2018-11-01T08:51:36.270Z,8.98
2018-11-01T08:56:40.860Z,9.15
2018-11-01T09:01:45.379Z,9.39
2018-11-01T09:06:50.336Z,9.52
2018-11-01T09:11:54.776Z,9.72
2018-11-01T09:16:59.201Z,9.83
2018-11-01T09:22:03.622Z,9.82
2018-11-01T09:27:08.221Z,9.93
2018-11-01T09:32:12.660Z,10.11
2018-11-01T09:37:17.551Z,10.31
2018-11-01T09:42:21.711Z,10.54
2018-11-01T09:47:26.556Z,10.79
2018-11-01T09:52:30.791Z,10.96
2018-11-01T09:57:35.120Z,10.98
2018-11-01T10:02:44.847Z,10.99
2018-11-01T10:07:49.444Z,11.07
2018-11-01T10:12:53.819Z,11.04
2018-11-01T10:17:58.790Z,11.01
2018-11-01T10:23:04.299Z,10.96
2018-11-01T10:28:08.843Z,10.93
2018-11-01T10:33:13.275Z,10.93
2018-11-01T10:38:18.520Z,10.88
2018-11-01T10:43:23.893Z,10.84
2018-11-01T10:48:28.229Z,10.89
2018-11-01T10:53:32.902Z,10.96
2018-11-01T10:58:37.158Z,11.00
2018-11-01T11:03:41.363Z,10.98
2018-11-01T11:08:46.679Z,10.96
2018-11-01T11:13:51.295Z,10.95
2018-11-01T11:18:56.028Z,10.98
2018-11-01T11:24:01.613Z,10.97
2018-11-01T11:29:06.331Z,10.94
2018-11-01T11:34:10.885Z,10.92
2018-11-01T11:39:15.483Z,10.94
2018-11-01T11:44:20.703Z,10.96
2018-11-01T11:49:26.020Z,10.97
2018-11-01T11:54:30.683Z,10.98
2018-11-01T11:59:35.126Z,10.94
2018-11-01T12:04:39.548Z,10.92
2018-11-01T12:09:43.705Z,10.90
2018-11-01T12:14:48.114Z,10.88
2018-11-01T12:19:52.435Z,10.86
2018-11-01T12:24:56.719Z,10.90
2018-11-01T12:30:01.202Z,10.94
2018-11-01T12:35:05.608Z,10.97
2018-11-01T12:40:12.747Z,11.02
2018-11-01T12:45:17.233Z,11.09
2018-11-01T12:50:21.804Z,11.09
2018-11-01T12:55:26.053Z,11.11
2018-11-01T13:00:30.461Z,11.12
2018-11-01T13:05:34.902Z,11.12
2018-11-01T13:10:48.610Z,11.16
2018-11-01T13:15:52.955Z,11.17
2018-11-01T13:20:57.376Z,11.17
2018-11-01T13:26:01.629Z,11.15
2018-11-01T13:31:06.429Z,11.13
2018-11-01T13:36:10.737Z,11.12
2018-11-01T13:41:16.978Z,11.15
2018-11-01T13:46:21.632Z,11.19
2018-11-01T13:51:26.019Z,11.23
2018-11-01T13:56:30.519Z,11.21
2018-11-01T14:01:34.713Z,11.26
2018-11-01T14:06:39.099Z,11.26
2018-11-01T14:11:43.358Z,11.27
2018-11-01T14:16:47.625Z,11.30
2018-11-01T14:21:51.845Z,11.32
2018-11-01T14:26:56.231Z,11.35
2018-11-01T14:32:00.540Z,11.34
2018-11-01T14:37:05.469Z,11.33
2018-11-01T14:42:09.674Z,11.33
2018-11-01T14:47:14.419Z,11.31
2018-11-01T14:52:19.216Z,11.27
2018-11-01T14:57:24.441Z,11.22
2018-11-01T15:02:37.042Z,11.21
2018-11-01T15:07:41.659Z,11.17
2018-11-01T15:12:46.047Z,11.16
2018-11-01T15:17:50.773Z,11.13
2018-11-01T15:22:55.015Z,11.09
2018-11-01T15:28:00.601Z,11.12
2018-11-01T15:33:05.816Z,11.02
2018-11-01T15:38:10.440Z,10.93
2018-11-01T15:43:15.249Z,10.86
2018-11-01T15:48:20.440Z,10.81
2018-11-01T15:53:29.944Z,10.75
2018-11-01T15:58:34.718Z,10.73
2018-11-01T16:03:44.481Z,10.72
2018-11-01T16:08:48.916Z,10.69
2018-11-01T16:13:53.519Z,10.67
2018-11-01T16:18:58.229Z,10.67
2018-11-01T16:24:03.217Z,10.64
2018-11-01T16:29:07.701Z,10.61
2018-11-01T16:34:12.328Z,10.59
2018-11-01T16:39:16.649Z,10.64
2018-11-01T16:44:21.239Z,10.66
2018-11-01T16:49:25.694Z,10.71
2018-11-01T16:54:30.285Z,10.72
2018-11-01T16:59:34.888Z,10.75
2018-11-01T17:04:39.589Z,10.77
2018-11-01T17:09:44.140Z,10.77
2018-11-01T17:14:48.582Z,10.79
2018-11-01T17:19:53.186Z,10.80
2018-11-01T17:24:58.101Z,10.79
2018-11-01T17:30:02.501Z,10.81
2018-11-01T17:35:07.324Z,10.88
2018-11-01T17:40:22.905Z,10.92
2018-11-01T17:45:27.291Z,10.93
2018-11-01T17:50:32.049Z,10.83
2018-11-01T17:55:36.703Z,10.70
2018-11-01T18:00:41.887Z,10.64
2018-11-01T18:05:46.577Z,10.57
2018-11-01T18:10:51.295Z,10.52
2018-11-01T18:15:56.212Z,10.54
2018-11-01T18:21:10.435Z,10.52
2018-11-01T18:26:14.795Z,10.50
2018-11-01T18:31:19.804Z,10.46
2018-11-01T18:36:29.341Z,10.46
2018-11-01T18:41:34.917Z,10.47
2018-11-01T18:46:40.652Z,10.46
2018-11-01T18:51:45.517Z,10.42
2018-11-01T18:56:50.529Z,10.36
2018-11-01T19:01:55.273Z,10.34
2018-11-01T19:07:00.120Z,10.30
2018-11-01T19:12:04.774Z,10.23
2018-11-01T19:17:09.568Z,10.23
2018-11-01T19:22:15.350Z,10.26
2018-11-01T19:27:21.335Z,10.26
2018-11-01T19:32:25.279Z,10.28
2018-11-01T19:37:30.285Z,10.20
2018-11-01T19:42:34.893Z,10.15
2018-11-01T19:47:39.851Z,10.11
2018-11-01T19:52:50.049Z,10.12
2018-11-01T19:57:54.755Z,10.11
2018-11-01T20:02:59.411Z,10.05
2018-11-01T20:08:05.318Z,10.03
2018-11-01T20:13:09.807Z,10.02
2018-11-01T20:18:14.477Z,10.01
2018-11-01T20:23:18.891Z,9.93
2018-11-01T20:28:24.026Z,9.91
2018-11-01T20:33:28.553Z,9.87
2018-11-01T20:38:33.172Z,9.80
2018-11-01T20:43:37.761Z,9.74
2018-11-01T20:48:43.172Z,9.67
2018-11-01T20:53:47.865Z,9.63
2018-11-01T20:58:52.648Z,9.60
2018-11-01T21:03:57.973Z,9.54
2018-11-01T21:09:02.484Z,9.50
2018-11-01T21:14:06.907Z,9.47
2018-11-01T21:19:13.335Z,9.43
2018-11-01T21:24:18.077Z,9.41
2018-11-01T21:29:22.491Z,9.42
2018-11-01T21:34:49.494Z,9.28
2018-11-01T21:39:59.777Z,9.20
2018-11-01T21:45:04.571Z,9.19
2018-11-01T21:50:09.457Z,9.23
2018-11-01T21:55:14.156Z,9.22
2018-11-01T22:00:18.915Z,9.27
2018-11-01T22:05:24.035Z,9.20
2018-11-01T22:10:28.465Z,9.12
2018-11-01T22:15:32.898Z,9.11
2018-11-01T22:20:37.415Z,9.08
2018-11-01T22:25:42.361Z,9.10
2018-11-01T22:30:46.855Z,9.05
2018-11-01T22:35:51.493Z,8.94
2018-11-01T22:41:01.091Z,8.91
2018-11-01T22:46:05.648Z,8.88
2018-11-01T22:51:10.301Z,8.80
2018-11-01T22:56:14.956Z,8.81
2018-11-01T23:01:19.513Z,8.82
2018-11-01T23:06:24.141Z,8.87
2018-11-01T23:11:28.733Z,8.90
2018-11-01T23:16:33.543Z,8.91
2018-11-01T23:21:37.886Z,8.94
2018-11-01T23:26:42.206Z,8.99
2018-11-01T23:31:46.447Z,8.86
2018-11-01T23:36:55.995Z,8.79
2018-11-01T23:42:05.738Z,8.81
2018-11-01T23:47:15.650Z,8.83
2018-11-01T23:52:22.371Z,8.86
2018-11-01T23:57:26.470Z,8.86
